sensor_id;sensor_type;location;lat;lon;timestamp;temperature;humidity
16846;DHT22;8539;53.188;8.696;2023-11-21T00:01:40;8.70;99.90
16846;DHT22;8539;53.188;8.696;2023-11-21T00:04:06;8.70;99.90
16846;DHT22;8539;53.188;8.696;2023-11-21T00:06:33;8.70;99.90
16846;DHT22;8539;53.188;8.696;2023-11-21T00:08:59;8.70;99.90
16846;DHT22;8539;53.188;8.696;2023-11-21T00:11:26;8.70;99.90
16846;DHT22;8539;53.188;8.696;2023-11-21T00:13:52;8.70;99.90
16846;DHT22;8539;53.188;8.696;2023-11-21T00:16:20;8.70;99.90
16846;DHT22;8539;53.188;8.696;2023-11-21T00:18:48;8.70;99.90
16846;DHT22;8539;53.188;8.696;2023-11-21T00:21:14;8.70;99.90
16846;DHT22;8539;53.188;8.696;2023-11-21T00:23:40;8.70;99.90
16846;DHT22;8539;53.188;8.696;2023-11-21T00:26:06;8.70;99.90
16846;DHT22;8539;53.188;8.696;2023-11-21T00:28:33;8.80;99.90
16846;DHT22;8539;53.188;8.696;2023-11-21T00:30:59;8.80;99.90
16846;DHT22;8539;53.188;8.696;2023-11-21T00:33:25;8.80;99.90
16846;DHT22;8539;53.188;8.696;2023-11-21T00:35:51;8.70;99.90
16846;DHT22;8539;53.188;8.696;2023-11-21T00:38:17;8.70;99.90
16846;DHT22;8539;53.188;8.696;2023-11-21T00:40:46;8.70;99.90
16846;DHT22;8539;53.188;8.696;2023-11-21T00:43:12;8.80;99.90
16846;DHT22;8539;53.188;8.696;2023-11-21T00:45:38;8.70;99.90
16846;DHT22;8539;53.188;8.696;2023-11-21T00:48:06;8.70;99.90
16846;DHT22;8539;53.188;8.696;2023-11-21T00:50:34;8.80;99.90
16846;DHT22;8539;53.188;8.696;2023-11-21T00:53:00;8.80;99.90
16846;DHT22;8539;53.188;8.696;2023-11-21T00:55:26;8.80;99.90
16846;DHT22;8539;53.188;8.696;2023-11-21T00:57:54;8.80;99.90
16846;DHT22;8539;53.188;8.696;2023-11-21T01:00:20;8.80;99.90
16846;DHT22;8539;53.188;8.696;2023-11-21T01:02:47;8.80;99.90
16846;DHT22;8539;53.188;8.696;2023-11-21T01:05:14;8.80;99.90
16846;DHT22;8539;53.188;8.696;2023-11-21T01:07:40;8.80;99.90
16846;DHT22;8539;53.188;8.696;2023-11-21T01:10:06;8.80;99.90
16846;DHT22;8539;53.188;8.696;2023-11-21T01:12:37;8.80;99.90
16846;DHT22;8539;53.188;8.696;2023-11-21T01:15:05;8.70;99.90
16846;DHT22;8539;53.188;8.696;2023-11-21T01:17:35;8.70;99.90
16846;DHT22;8539;53.188;8.696;2023-11-21T01:20:02;8.80;99.90
16846;DHT22;8539;53.188;8.696;2023-11-21T01:22:29;8.70;99.90
16846;DHT22;8539;53.188;8.696;2023-11-21T01:24:55;8.80;99.90
16846;DHT22;8539;53.188;8.696;2023-11-21T01:27:21;8.80;99.90
16846;DHT22;8539;53.188;8.696;2023-11-21T01:29:47;8.80;99.90
16846;DHT22;8539;53.188;8.696;2023-11-21T01:32:13;8.80;99.90
16846;DHT22;8539;53.188;8.696;2023-11-21T01:34:40;8.80;99.90
16846;DHT22;8539;53.188;8.696;2023-11-21T01:37:06;8.70;99.90
16846;DHT22;8539;53.188;8.696;2023-11-21T01:39:32;8.80;99.90
16846;DHT22;8539;53.188;8.696;2023-11-21T01:41:58;8.80;99.90
16846;DHT22;8539;53.188;8.696;2023-11-21T01:44:26;8.70;99.90
16846;DHT22;8539;53.188;8.696;2023-11-21T01:46:52;8.80;99.90
16846;DHT22;8539;53.188;8.696;2023-11-21T01:49:19;8.80;99.90
16846;DHT22;8539;53.188;8.696;2023-11-21T01:51:48;8.80;99.90
16846;DHT22;8539;53.188;8.696;2023-11-21T01:54:16;8.80;99.90
16846;DHT22;8539;53.188;8.696;2023-11-21T01:56:46;8.80;99.90
16846;DHT22;8539;53.188;8.696;2023-11-21T01:59:13;8.80;99.90
16846;DHT22;8539;53.188;8.696;2023-11-21T02:01:40;8.80;99.90
16846;DHT22;8539;53.188;8.696;2023-11-21T02:04:07;8.80;99.90
16846;DHT22;8539;53.188;8.696;2023-11-21T02:06:34;8.80;99.90
16846;DHT22;8539;53.188;8.696;2023-11-21T02:09:00;8.80;99.90
16846;DHT22;8539;53.188;8.696;2023-11-21T02:11:26;8.80;99.90
16846;DHT22;8539;53.188;8.696;2023-11-21T02:13:53;8.80;99.90
16846;DHT22;8539;53.188;8.696;2023-11-21T02:16:19;8.90;99.90
16846;DHT22;8539;53.188;8.696;2023-11-21T02:18:47;8.90;99.90
16846;DHT22;8539;53.188;8.696;2023-11-21T02:21:14;8.90;99.90
16846;DHT22;8539;53.188;8.696;2023-11-21T02:23:40;8.90;99.90
16846;DHT22;8539;53.188;8.696;2023-11-21T02:26:10;8.90;99.90
16846;DHT22;8539;53.188;8.696;2023-11-21T02:28:36;8.90;99.90
16846;DHT22;8539;53.188;8.696;2023-11-21T02:31:05;8.90;99.90
16846;DHT22;8539;53.188;8.696;2023-11-21T02:33:31;9.00;99.90
16846;DHT22;8539;53.188;8.696;2023-11-21T02:36:03;9.00;99.90
16846;DHT22;8539;53.188;8.696;2023-11-21T02:38:29;8.90;99.90
16846;DHT22;8539;53.188;8.696;2023-11-21T02:40:57;9.00;99.90
16846;DHT22;8539;53.188;8.696;2023-11-21T02:43:25;8.90;99.90
16846;DHT22;8539;53.188;8.696;2023-11-21T02:45:51;9.00;99.90
16846;DHT22;8539;53.188;8.696;2023-11-21T02:48:17;8.90;99.90
16846;DHT22;8539;53.188;8.696;2023-11-21T02:50:43;8.90;99.90
16846;DHT22;8539;53.188;8.696;2023-11-21T02:53:09;8.90;99.90
16846;DHT22;8539;53.188;8.696;2023-11-21T02:55:36;8.90;99.90
16846;DHT22;8539;53.188;8.696;2023-11-21T02:58:03;9.00;99.90
16846;DHT22;8539;53.188;8.696;2023-11-21T03:00:32;8.90;99.90
16846;DHT22;8539;53.188;8.696;2023-11-21T03:02:58;8.80;99.90
16846;DHT22;8539;53.188;8.696;2023-11-21T03:05:24;8.80;99.90
16846;DHT22;8539;53.188;8.696;2023-11-21T03:07:50;8.80;99.90
16846;DHT22;8539;53.188;8.696;2023-11-21T03:10:16;8.80;99.90
16846;DHT22;8539;53.188;8.696;2023-11-21T03:12:42;8.80;99.90
16846;DHT22;8539;53.188;8.696;2023-11-21T03:15:10;8.80;99.90
16846;DHT22;8539;53.188;8.696;2023-11-21T03:17:36;8.80;99.90
16846;DHT22;8539;53.188;8.696;2023-11-21T03:20:03;8.80;99.90
16846;DHT22;8539;53.188;8.696;2023-11-21T03:22:29;8.70;99.90
16846;DHT22;8539;53.188;8.696;2023-11-21T03:24:55;8.70;99.90
16846;DHT22;8539;53.188;8.696;2023-11-21T03:27:22;8.70;99.90
16846;DHT22;8539;53.188;8.696;2023-11-21T03:29:48;8.70;99.90
16846;DHT22;8539;53.188;8.696;2023-11-21T03:32:14;8.50;99.90
16846;DHT22;8539;53.188;8.696;2023-11-21T03:34:57;8.50;99.90
16846;DHT22;8539;53.188;8.696;2023-11-21T03:37:23;8.50;99.90
16846;DHT22;8539;53.188;8.696;2023-11-21T03:39:51;8.50;99.90
16846;DHT22;8539;53.188;8.696;2023-11-21T03:42:17;8.50;99.90
16846;DHT22;8539;53.188;8.696;2023-11-21T03:44:43;8.50;99.90
16846;DHT22;8539;53.188;8.696;2023-11-21T03:47:09;8.40;99.90
16846;DHT22;8539;53.188;8.696;2023-11-21T03:49:34;8.40;99.90
16846;DHT22;8539;53.188;8.696;2023-11-21T03:52:00;8.40;99.90
16846;DHT22;8539;53.188;8.696;2023-11-21T03:54:26;8.40;99.90
16846;DHT22;8539;53.188;8.696;2023-11-21T03:56:52;8.30;99.90
16846;DHT22;8539;53.188;8.696;2023-11-21T03:59:18;8.30;99.90
16846;DHT22;8539;53.188;8.696;2023-11-21T04:01:45;8.30;99.90
16846;DHT22;8539;53.188;8.696;2023-11-21T04:04:11;8.20;99.90
16846;DHT22;8539;53.188;8.696;2023-11-21T04:06:37;8.20;99.90
16846;DHT22;8539;53.188;8.696;2023-11-21T04:09:04;8.20;99.90
16846;DHT22;8539;53.188;8.696;2023-11-21T04:11:30;8.10;99.90
16846;DHT22;8539;53.188;8.696;2023-11-21T04:13:56;8.10;99.90
16846;DHT22;8539;53.188;8.696;2023-11-21T04:16:22;8.10;99.90
16846;DHT22;8539;53.188;8.696;2023-11-21T04:18:48;8.10;99.90
16846;DHT22;8539;53.188;8.696;2023-11-21T04:21:14;8.00;99.90
16846;DHT22;8539;53.188;8.696;2023-11-21T04:23:40;8.00;99.90
16846;DHT22;8539;53.188;8.696;2023-11-21T04:26:06;8.00;99.90
16846;DHT22;8539;53.188;8.696;2023-11-21T04:28:34;8.00;99.90
16846;DHT22;8539;53.188;8.696;2023-11-21T04:31:00;8.00;99.90
16846;DHT22;8539;53.188;8.696;2023-11-21T04:33:26;7.90;99.90
16846;DHT22;8539;53.188;8.696;2023-11-21T04:35:52;7.90;99.90
16846;DHT22;8539;53.188;8.696;2023-11-21T04:38:18;7.90;99.90
16846;DHT22;8539;53.188;8.696;2023-11-21T04:40:44;8.00;99.90
16846;DHT22;8539;53.188;8.696;2023-11-21T04:43:11;7.90;99.90
16846;DHT22;8539;53.188;8.696;2023-11-21T04:45:37;7.90;99.90
16846;DHT22;8539;53.188;8.696;2023-11-21T04:48:04;7.90;99.90
16846;DHT22;8539;53.188;8.696;2023-11-21T04:50:30;7.90;99.90
16846;DHT22;8539;53.188;8.696;2023-11-21T04:52:56;7.90;99.90
16846;DHT22;8539;53.188;8.696;2023-11-21T04:55:21;7.80;99.90
16846;DHT22;8539;53.188;8.696;2023-11-21T04:57:48;7.80;99.90
16846;DHT22;8539;53.188;8.696;2023-11-21T05:00:14;7.80;99.90
16846;DHT22;8539;53.188;8.696;2023-11-21T05:02:42;7.70;99.90
16846;DHT22;8539;53.188;8.696;2023-11-21T05:05:10;7.70;99.90
16846;DHT22;8539;53.188;8.696;2023-11-21T05:07:36;7.70;99.90
16846;DHT22;8539;53.188;8.696;2023-11-21T05:10:05;7.70;99.90
16846;DHT22;8539;53.188;8.696;2023-11-21T05:12:33;7.60;99.90
16846;DHT22;8539;53.188;8.696;2023-11-21T05:15:07;7.60;99.90
16846;DHT22;8539;53.188;8.696;2023-11-21T05:17:36;7.60;99.90
16846;DHT22;8539;53.188;8.696;2023-11-21T05:20:04;7.50;99.90
16846;DHT22;8539;53.188;8.696;2023-11-21T05:22:35;7.50;99.90
16846;DHT22;8539;53.188;8.696;2023-11-21T05:25:02;7.50;99.90
16846;DHT22;8539;53.188;8.696;2023-11-21T05:27:32;7.50;99.90
16846;DHT22;8539;53.188;8.696;2023-11-21T05:29:58;7.50;99.90
16846;DHT22;8539;53.188;8.696;2023-11-21T05:32:25;7.50;99.90
16846;DHT22;8539;53.188;8.696;2023-11-21T05:34:52;7.50;99.90
16846;DHT22;8539;53.188;8.696;2023-11-21T05:37:18;7.50;99.90
16846;DHT22;8539;53.188;8.696;2023-11-21T05:39:44;7.50;99.90
16846;DHT22;8539;53.188;8.696;2023-11-21T05:42:10;7.50;99.90
16846;DHT22;8539;53.188;8.696;2023-11-21T05:44:37;7.50;99.90
16846;DHT22;8539;53.188;8.696;2023-11-21T05:47:06;7.50;99.90
16846;DHT22;8539;53.188;8.696;2023-11-21T05:49:33;7.40;99.90
16846;DHT22;8539;53.188;8.696;2023-11-21T05:52:00;7.40;99.90
16846;DHT22;8539;53.188;8.696;2023-11-21T05:54:26;7.30;99.90
16846;DHT22;8539;53.188;8.696;2023-11-21T05:56:52;7.30;99.90
16846;DHT22;8539;53.188;8.696;2023-11-21T05:59:18;7.20;99.90
16846;DHT22;8539;53.188;8.696;2023-11-21T06:01:46;7.20;99.90
16846;DHT22;8539;53.188;8.696;2023-11-21T06:04:12;7.10;99.90
16846;DHT22;8539;53.188;8.696;2023-11-21T06:06:39;7.10;99.90
16846;DHT22;8539;53.188;8.696;2023-11-21T06:09:05;7.00;99.90
16846;DHT22;8539;53.188;8.696;2023-11-21T06:11:37;7.00;99.90
16846;DHT22;8539;53.188;8.696;2023-11-21T06:14:04;7.00;99.90
16846;DHT22;8539;53.188;8.696;2023-11-21T06:16:31;7.00;99.90
16846;DHT22;8539;53.188;8.696;2023-11-21T06:18:57;7.00;99.90
16846;DHT22;8539;53.188;8.696;2023-11-21T06:21:23;6.90;99.90
16846;DHT22;8539;53.188;8.696;2023-11-21T06:23:49;6.90;99.90
16846;DHT22;8539;53.188;8.696;2023-11-21T06:26:15;6.90;99.90
16846;DHT22;8539;53.188;8.696;2023-11-21T06:28:41;6.90;99.90
16846;DHT22;8539;53.188;8.696;2023-11-21T06:31:07;6.90;99.90
16846;DHT22;8539;53.188;8.696;2023-11-21T06:33:34;6.90;99.90
16846;DHT22;8539;53.188;8.696;2023-11-21T06:36:00;6.90;99.90
16846;DHT22;8539;53.188;8.696;2023-11-21T06:38:30;6.80;99.90
16846;DHT22;8539;53.188;8.696;2023-11-21T06:40:58;6.80;99.90
16846;DHT22;8539;53.188;8.696;2023-11-21T06:43:24;6.80;99.90
16846;DHT22;8539;53.188;8.696;2023-11-21T06:45:50;6.80;99.90
16846;DHT22;8539;53.188;8.696;2023-11-21T06:48:16;6.80;99.90
16846;DHT22;8539;53.188;8.696;2023-11-21T06:50:42;6.70;99.90
16846;DHT22;8539;53.188;8.696;2023-11-21T06:53:08;6.70;99.90
16846;DHT22;8539;53.188;8.696;2023-11-21T06:55:35;6.70;99.90
16846;DHT22;8539;53.188;8.696;2023-11-21T06:58:01;6.70;99.90
16846;DHT22;8539;53.188;8.696;2023-11-21T07:00:28;6.60;99.90
16846;DHT22;8539;53.188;8.696;2023-11-21T07:02:55;6.60;99.90
16846;DHT22;8539;53.188;8.696;2023-11-21T07:05:22;6.60;99.90
16846;DHT22;8539;53.188;8.696;2023-11-21T07:07:49;6.60;99.90
16846;DHT22;8539;53.188;8.696;2023-11-21T07:10:15;6.50;99.90
16846;DHT22;8539;53.188;8.696;2023-11-21T07:12:42;6.40;99.90
16846;DHT22;8539;53.188;8.696;2023-11-21T07:15:09;6.50;99.90
16846;DHT22;8539;53.188;8.696;2023-11-21T07:17:35;6.40;99.90
16846;DHT22;8539;53.188;8.696;2023-11-21T07:20:02;6.40;99.90
16846;DHT22;8539;53.188;8.696;2023-11-21T07:22:28;6.50;99.90
16846;DHT22;8539;53.188;8.696;2023-11-21T07:24:55;6.50;99.90
16846;DHT22;8539;53.188;8.696;2023-11-21T07:27:22;6.40;99.90
16846;DHT22;8539;53.188;8.696;2023-11-21T07:29:48;6.40;99.90
16846;DHT22;8539;53.188;8.696;2023-11-21T07:32:14;6.40;99.90
16846;DHT22;8539;53.188;8.696;2023-11-21T07:34:41;6.40;99.90
16846;DHT22;8539;53.188;8.696;2023-11-21T07:37:08;6.40;99.90
16846;DHT22;8539;53.188;8.696;2023-11-21T07:39:35;6.30;99.90
16846;DHT22;8539;53.188;8.696;2023-11-21T07:42:07;6.40;99.90
16846;DHT22;8539;53.188;8.696;2023-11-21T07:44:33;6.40;99.90
16846;DHT22;8539;53.188;8.696;2023-11-21T07:47:00;6.40;99.90
16846;DHT22;8539;53.188;8.696;2023-11-21T07:49:26;6.40;99.90
16846;DHT22;8539;53.188;8.696;2023-11-21T07:51:52;6.40;99.90
16846;DHT22;8539;53.188;8.696;2023-11-21T07:54:19;6.40;99.90
16846;DHT22;8539;53.188;8.696;2023-11-21T07:56:45;6.50;99.90
16846;DHT22;8539;53.188;8.696;2023-11-21T07:59:11;6.50;99.90
16846;DHT22;8539;53.188;8.696;2023-11-21T08:01:38;6.50;99.90
16846;DHT22;8539;53.188;8.696;2023-11-21T08:04:06;6.50;99.90
16846;DHT22;8539;53.188;8.696;2023-11-21T08:06:32;6.50;99.90
16846;DHT22;8539;53.188;8.696;2023-11-21T08:08:59;6.60;99.90
16846;DHT22;8539;53.188;8.696;2023-11-21T08:11:25;6.60;99.90
16846;DHT22;8539;53.188;8.696;2023-11-21T08:13:54;6.60;99.90
16846;DHT22;8539;53.188;8.696;2023-11-21T08:16:21;6.60;99.90
16846;DHT22;8539;53.188;8.696;2023-11-21T08:18:47;6.70;99.90
16846;DHT22;8539;53.188;8.696;2023-11-21T08:21:13;6.70;99.90
16846;DHT22;8539;53.188;8.696;2023-11-21T08:23:39;6.60;99.90
16846;DHT22;8539;53.188;8.696;2023-11-21T08:26:05;6.70;99.90
16846;DHT22;8539;53.188;8.696;2023-11-21T08:28:31;6.70;99.90
16846;DHT22;8539;53.188;8.696;2023-11-21T08:30:57;6.70;99.90
16846;DHT22;8539;53.188;8.696;2023-11-21T08:33:24;6.70;99.90
16846;DHT22;8539;53.188;8.696;2023-11-21T08:35:50;6.70;99.90
16846;DHT22;8539;53.188;8.696;2023-11-21T08:38:16;6.70;99.90
16846;DHT22;8539;53.188;8.696;2023-11-21T08:40:43;6.80;99.90
16846;DHT22;8539;53.188;8.696;2023-11-21T08:43:10;6.80;99.90
16846;DHT22;8539;53.188;8.696;2023-11-21T08:45:38;6.80;99.90
16846;DHT22;8539;53.188;8.696;2023-11-21T08:48:04;6.80;99.90
16846;DHT22;8539;53.188;8.696;2023-11-21T08:50:31;6.80;99.90
16846;DHT22;8539;53.188;8.696;2023-11-21T08:52:57;6.90;99.90
16846;DHT22;8539;53.188;8.696;2023-11-21T08:55:23;6.90;99.90
16846;DHT22;8539;53.188;8.696;2023-11-21T08:57:49;7.00;99.90
16846;DHT22;8539;53.188;8.696;2023-11-21T09:00:16;7.00;99.90
16846;DHT22;8539;53.188;8.696;2023-11-21T09:02:43;7.00;99.90
16846;DHT22;8539;53.188;8.696;2023-11-21T09:05:14;7.00;99.90
16846;DHT22;8539;53.188;8.696;2023-11-21T09:07:41;7.00;99.90
16846;DHT22;8539;53.188;8.696;2023-11-21T09:10:07;7.10;99.90
16846;DHT22;8539;53.188;8.696;2023-11-21T09:12:35;7.10;99.90
16846;DHT22;8539;53.188;8.696;2023-11-21T09:15:04;7.20;99.90
16846;DHT22;8539;53.188;8.696;2023-11-21T09:17:31;7.30;99.90
16846;DHT22;8539;53.188;8.696;2023-11-21T09:19:57;7.30;99.90
16846;DHT22;8539;53.188;8.696;2023-11-21T09:22:24;7.30;99.90
16846;DHT22;8539;53.188;8.696;2023-11-21T09:24:55;7.30;99.90
16846;DHT22;8539;53.188;8.696;2023-11-21T09:27:26;7.30;99.90
16846;DHT22;8539;53.188;8.696;2023-11-21T09:29:52;7.30;99.90
16846;DHT22;8539;53.188;8.696;2023-11-21T09:32:21;7.30;99.90
16846;DHT22;8539;53.188;8.696;2023-11-21T09:34:49;7.30;99.90
16846;DHT22;8539;53.188;8.696;2023-11-21T09:37:16;7.40;99.90
16846;DHT22;8539;53.188;8.696;2023-11-21T09:39:42;7.40;99.90
16846;DHT22;8539;53.188;8.696;2023-11-21T09:42:12;7.30;99.90
16846;DHT22;8539;53.188;8.696;2023-11-21T09:45:03;7.40;99.90
16846;DHT22;8539;53.188;8.696;2023-11-21T09:47:32;7.40;99.90
16846;DHT22;8539;53.188;8.696;2023-11-21T09:50:02;7.40;99.90
16846;DHT22;8539;53.188;8.696;2023-11-21T09:52:28;7.50;99.90
16846;DHT22;8539;53.188;8.696;2023-11-21T09:54:55;7.50;99.90
16846;DHT22;8539;53.188;8.696;2023-11-21T09:57:27;7.50;99.90
16846;DHT22;8539;53.188;8.696;2023-11-21T09:59:54;7.50;99.90
16846;DHT22;8539;53.188;8.696;2023-11-21T10:02:25;7.50;99.90
16846;DHT22;8539;53.188;8.696;2023-11-21T10:04:52;7.50;99.90
16846;DHT22;8539;53.188;8.696;2023-11-21T10:07:20;7.50;99.90
16846;DHT22;8539;53.188;8.696;2023-11-21T10:09:47;7.50;99.90
16846;DHT22;8539;53.188;8.696;2023-11-21T10:12:15;7.60;99.90
16846;DHT22;8539;53.188;8.696;2023-11-21T10:14:43;7.70;99.90
16846;DHT22;8539;53.188;8.696;2023-11-21T10:17:14;7.70;99.90
16846;DHT22;8539;53.188;8.696;2023-11-21T10:19:46;7.70;99.90
16846;DHT22;8539;53.188;8.696;2023-11-21T10:22:14;7.70;99.90
16846;DHT22;8539;53.188;8.696;2023-11-21T10:24:41;7.70;99.90
16846;DHT22;8539;53.188;8.696;2023-11-21T10:27:09;7.80;99.90
16846;DHT22;8539;53.188;8.696;2023-11-21T10:29:35;7.80;99.90
16846;DHT22;8539;53.188;8.696;2023-11-21T10:32:04;7.90;99.90
16846;DHT22;8539;53.188;8.696;2023-11-21T10:34:31;7.90;99.90
16846;DHT22;8539;53.188;8.696;2023-11-21T10:36:57;7.90;99.90
16846;DHT22;8539;53.188;8.696;2023-11-21T10:39:24;7.90;99.90
16846;DHT22;8539;53.188;8.696;2023-11-21T10:41:54;7.90;99.90
16846;DHT22;8539;53.188;8.696;2023-11-21T10:44:23;7.90;99.90
16846;DHT22;8539;53.188;8.696;2023-11-21T10:46:51;8.00;99.90
16846;DHT22;8539;53.188;8.696;2023-11-21T10:49:18;8.00;99.90
16846;DHT22;8539;53.188;8.696;2023-11-21T10:51:45;8.00;99.90
16846;DHT22;8539;53.188;8.696;2023-11-21T10:54:11;8.10;99.90
16846;DHT22;8539;53.188;8.696;2023-11-21T10:56:39;8.00;99.90
16846;DHT22;8539;53.188;8.696;2023-11-21T10:59:10;8.00;99.90
16846;DHT22;8539;53.188;8.696;2023-11-21T11:01:45;8.00;99.90
16846;DHT22;8539;53.188;8.696;2023-11-21T11:04:15;8.00;99.90
16846;DHT22;8539;53.188;8.696;2023-11-21T11:06:44;8.10;99.90
16846;DHT22;8539;53.188;8.696;2023-11-21T11:09:13;8.10;99.90
16846;DHT22;8539;53.188;8.696;2023-11-21T11:11:40;8.10;99.90
16846;DHT22;8539;53.188;8.696;2023-11-21T11:14:13;8.00;99.90
16846;DHT22;8539;53.188;8.696;2023-11-21T11:16:40;8.00;99.90
16846;DHT22;8539;53.188;8.696;2023-11-21T11:19:07;7.90;99.90
16846;DHT22;8539;53.188;8.696;2023-11-21T11:24:27;7.90;99.90
16846;DHT22;8539;53.188;8.696;2023-11-21T11:35:19;8.00;99.90
16846;DHT22;8539;53.188;8.696;2023-11-21T11:37:48;8.00;99.90
16846;DHT22;8539;53.188;8.696;2023-11-21T11:40:14;8.00;99.90
16846;DHT22;8539;53.188;8.696;2023-11-21T11:42:56;8.00;99.90
16846;DHT22;8539;53.188;8.696;2023-11-21T11:45:26;8.00;99.90
16846;DHT22;8539;53.188;8.696;2023-11-21T11:47:57;8.00;99.90
16846;DHT22;8539;53.188;8.696;2023-11-21T11:50:25;8.00;99.90
16846;DHT22;8539;53.188;8.696;2023-11-21T11:52:53;8.00;99.90
16846;DHT22;8539;53.188;8.696;2023-11-21T11:55:21;8.10;99.90
16846;DHT22;8539;53.188;8.696;2023-11-21T11:57:53;8.00;99.90
16846;DHT22;8539;53.188;8.696;2023-11-21T12:00:22;8.00;99.90
16846;DHT22;8539;53.188;8.696;2023-11-21T12:02:53;7.90;99.90
16846;DHT22;8539;53.188;8.696;2023-11-21T12:05:20;7.80;99.90
16846;DHT22;8539;53.188;8.696;2023-11-21T12:07:55;7.70;99.90
16846;DHT22;8539;53.188;8.696;2023-11-21T12:10:28;7.70;99.90
16846;DHT22;8539;53.188;8.696;2023-11-21T12:13:13;7.70;99.90
16846;DHT22;8539;53.188;8.696;2023-11-21T12:15:40;7.80;99.90
16846;DHT22;8539;53.188;8.696;2023-11-21T12:18:07;7.80;99.90
16846;DHT22;8539;53.188;8.696;2023-11-21T12:20:33;7.80;99.90
16846;DHT22;8539;53.188;8.696;2023-11-21T12:23:12;7.70;99.90
16846;DHT22;8539;53.188;8.696;2023-11-21T12:25:40;7.80;99.90
16846;DHT22;8539;53.188;8.696;2023-11-21T12:28:07;7.80;99.90
16846;DHT22;8539;53.188;8.696;2023-11-21T12:30:35;7.80;99.90
16846;DHT22;8539;53.188;8.696;2023-11-21T12:33:02;7.80;99.90
16846;DHT22;8539;53.188;8.696;2023-11-21T12:35:31;7.80;99.90
16846;DHT22;8539;53.188;8.696;2023-11-21T12:38:01;7.80;99.90
16846;DHT22;8539;53.188;8.696;2023-11-21T12:40:29;7.80;99.90
16846;DHT22;8539;53.188;8.696;2023-11-21T12:42:57;7.70;99.90
16846;DHT22;8539;53.188;8.696;2023-11-21T12:45:28;7.70;99.90
16846;DHT22;8539;53.188;8.696;2023-11-21T12:47:59;7.70;99.90
16846;DHT22;8539;53.188;8.696;2023-11-21T12:50:27;7.70;99.90
16846;DHT22;8539;53.188;8.696;2023-11-21T12:53:04;7.70;99.90
16846;DHT22;8539;53.188;8.696;2023-11-21T12:55:32;7.60;99.90
16846;DHT22;8539;53.188;8.696;2023-11-21T12:58:03;7.60;99.90
16846;DHT22;8539;53.188;8.696;2023-11-21T13:00:40;7.60;99.90
16846;DHT22;8539;53.188;8.696;2023-11-21T13:03:09;7.70;99.90
16846;DHT22;8539;53.188;8.696;2023-11-21T13:05:37;7.70;99.90
16846;DHT22;8539;53.188;8.696;2023-11-21T13:08:13;7.70;99.90
16846;DHT22;8539;53.188;8.696;2023-11-21T13:10:41;7.70;99.90
16846;DHT22;8539;53.188;8.696;2023-11-21T13:13:11;7.70;99.90
16846;DHT22;8539;53.188;8.696;2023-11-21T13:15:48;7.70;99.90
16846;DHT22;8539;53.188;8.696;2023-11-21T13:18:15;7.70;99.90
16846;DHT22;8539;53.188;8.696;2023-11-21T13:20:42;7.70;99.90
16846;DHT22;8539;53.188;8.696;2023-11-21T13:23:12;7.70;99.90
16846;DHT22;8539;53.188;8.696;2023-11-21T13:25:39;7.70;99.90
16846;DHT22;8539;53.188;8.696;2023-11-21T13:28:07;7.80;99.90
16846;DHT22;8539;53.188;8.696;2023-11-21T13:30:35;7.70;99.90
16846;DHT22;8539;53.188;8.696;2023-11-21T13:33:04;7.70;99.90
16846;DHT22;8539;53.188;8.696;2023-11-21T13:35:33;7.60;99.90
16846;DHT22;8539;53.188;8.696;2023-11-21T13:38:10;7.60;99.90
16846;DHT22;8539;53.188;8.696;2023-11-21T13:40:37;7.50;99.90
16846;DHT22;8539;53.188;8.696;2023-11-21T13:43:13;7.40;99.90
16846;DHT22;8539;53.188;8.696;2023-11-21T13:45:40;7.30;99.90
16846;DHT22;8539;53.188;8.696;2023-11-21T13:48:08;7.20;99.90
16846;DHT22;8539;53.188;8.696;2023-11-21T13:50:43;7.20;99.90
16846;DHT22;8539;53.188;8.696;2023-11-21T13:53:21;7.10;99.90
16846;DHT22;8539;53.188;8.696;2023-11-21T13:55:50;7.10;99.90
16846;DHT22;8539;53.188;8.696;2023-11-21T13:58:20;7.00;99.90
16846;DHT22;8539;53.188;8.696;2023-11-21T14:00:58;7.00;99.90
16846;DHT22;8539;53.188;8.696;2023-11-21T14:03:24;7.00;99.90
16846;DHT22;8539;53.188;8.696;2023-11-21T14:05:58;7.00;99.90
16846;DHT22;8539;53.188;8.696;2023-11-21T14:08:27;7.00;99.90
16846;DHT22;8539;53.188;8.696;2023-11-21T14:10:57;7.00;99.90
16846;DHT22;8539;53.188;8.696;2023-11-21T14:13:28;7.00;99.90
16846;DHT22;8539;53.188;8.696;2023-11-21T14:15:54;7.00;99.90
16846;DHT22;8539;53.188;8.696;2023-11-21T14:18:25;7.00;99.90
16846;DHT22;8539;53.188;8.696;2023-11-21T14:21:04;7.00;99.90
16846;DHT22;8539;53.188;8.696;2023-11-21T14:23:31;7.00;99.90
16846;DHT22;8539;53.188;8.696;2023-11-21T14:25:59;7.00;99.90
16846;DHT22;8539;53.188;8.696;2023-11-21T14:28:27;7.00;99.90
16846;DHT22;8539;53.188;8.696;2023-11-21T14:30:53;7.00;99.90
16846;DHT22;8539;53.188;8.696;2023-11-21T14:33:19;6.90;99.90
16846;DHT22;8539;53.188;8.696;2023-11-21T14:35:46;6.90;99.90
16846;DHT22;8539;53.188;8.696;2023-11-21T14:38:12;6.90;99.90
16846;DHT22;8539;53.188;8.696;2023-11-21T14:40:40;6.90;99.90
16846;DHT22;8539;53.188;8.696;2023-11-21T14:43:06;6.90;99.90
16846;DHT22;8539;53.188;8.696;2023-11-21T14:45:33;6.90;99.90
16846;DHT22;8539;53.188;8.696;2023-11-21T14:48:00;6.90;99.90
16846;DHT22;8539;53.188;8.696;2023-11-21T14:50:46;6.80;99.90
16846;DHT22;8539;53.188;8.696;2023-11-21T14:53:35;6.80;99.90
16846;DHT22;8539;53.188;8.696;2023-11-21T14:56:23;6.70;99.90
16846;DHT22;8539;53.188;8.696;2023-11-21T14:58:54;6.60;99.90
16846;DHT22;8539;53.188;8.696;2023-11-21T15:01:22;6.50;99.90
16846;DHT22;8539;53.188;8.696;2023-11-21T15:04:07;6.50;99.90
16846;DHT22;8539;53.188;8.696;2023-11-21T15:06:41;6.40;99.90
16846;DHT22;8539;53.188;8.696;2023-11-21T15:09:08;6.30;99.90
16846;DHT22;8539;53.188;8.696;2023-11-21T15:11:35;6.30;99.90
16846;DHT22;8539;53.188;8.696;2023-11-21T15:14:03;6.30;99.90
16846;DHT22;8539;53.188;8.696;2023-11-21T15:16:35;6.20;99.90
16846;DHT22;8539;53.188;8.696;2023-11-21T15:19:12;6.10;99.90
16846;DHT22;8539;53.188;8.696;2023-11-21T15:21:47;6.00;99.90
16846;DHT22;8539;53.188;8.696;2023-11-21T15:24:13;6.00;99.90
16846;DHT22;8539;53.188;8.696;2023-11-21T15:26:39;6.00;99.90
16846;DHT22;8539;53.188;8.696;2023-11-21T15:29:05;6.00;99.90
16846;DHT22;8539;53.188;8.696;2023-11-21T15:31:31;5.90;99.90
16846;DHT22;8539;53.188;8.696;2023-11-21T15:33:57;5.90;99.90
16846;DHT22;8539;53.188;8.696;2023-11-21T15:36:26;5.90;99.90
16846;DHT22;8539;53.188;8.696;2023-11-21T15:38:54;5.90;99.90
16846;DHT22;8539;53.188;8.696;2023-11-21T15:41:20;5.90;99.90
16846;DHT22;8539;53.188;8.696;2023-11-21T15:43:47;5.90;99.90
16846;DHT22;8539;53.188;8.696;2023-11-21T15:46:14;5.90;99.90
16846;DHT22;8539;53.188;8.696;2023-11-21T15:48:40;5.90;99.90
16846;DHT22;8539;53.188;8.696;2023-11-21T15:51:16;5.90;99.90
16846;DHT22;8539;53.188;8.696;2023-11-21T15:53:42;5.90;99.90
16846;DHT22;8539;53.188;8.696;2023-11-21T15:56:08;5.80;99.90
16846;DHT22;8539;53.188;8.696;2023-11-21T15:58:41;5.90;99.90
16846;DHT22;8539;53.188;8.696;2023-11-21T16:01:11;5.80;99.90
16846;DHT22;8539;53.188;8.696;2023-11-21T16:03:39;5.90;99.90
16846;DHT22;8539;53.188;8.696;2023-11-21T16:06:05;5.90;99.90
16846;DHT22;8539;53.188;8.696;2023-11-21T16:08:36;5.90;99.90
16846;DHT22;8539;53.188;8.696;2023-11-21T16:11:02;5.90;99.90
16846;DHT22;8539;53.188;8.696;2023-11-21T16:13:29;5.80;99.90
16846;DHT22;8539;53.188;8.696;2023-11-21T16:15:55;5.80;99.90
16846;DHT22;8539;53.188;8.696;2023-11-21T16:18:21;5.90;99.90